Port Clyde, Maine
Current Conditions -  °F | °C
As of 1:35 PM on Thursday 30 Oct 2014 (Local Time) from KRKD Reporting Station
Overcast Overcast  
Wind Chill: 54°   Ceiling: 8500
Heat Index: 54°   Visibility: 10mi
Dew Point: 41°   Wind: 8mph
Humidity: 62%   Direction: 270°W
Pressure: 29.86"   Gusts: NA
Location:  43.93°N, 69.25°W
Report Text: KRKD 301735Z AUTO 27007KT 10SM OVC085 12/05 A2986 RMK AO1
Loading
Personal Weather Stations






























Interactive Weather Map
Tropical Storm Tracking
New forecast layout! Learn more

10-Day Weather Forecast

Advertisements
Track Severe Weather on mobile